Iblea — IBFK — position and weather

sailwx.info

Track history (hours):
 
Tides and Currents Weather Stations Pressure Air Temp Water Temp Dewpoint Dewpoint Depression Visibility Wind Speed Wind Dir Waves Ship Positions

Iblea

Last reported at 2015-Jul-03 19:34 UTC. Time now 2015-Jul-03 20:21 UTC.
Position N 35°44' E 014°11'.

Length 176 m; draft 10.5 m.

Type: Ship (hazmat cat C). MMSI: 247087700.

Date/timePositionNaut miles runAvg speedWind from/ knotsBaromVisibWave heightAir tempDewpointWater temp
2015-Jul-03 19:34N 35°44' E 014°11'10 9.7
2015-Jul-03 18:33N 35°39' E 014°21'1212.5
2015-Jul-03 17:33N 35°38' E 014°36'1313.1
2015-Jul-03 16:33N 35°41' E 014°52'3 2.5
2015-Jul-03 15:33N 35°43' E 014°54'0 0.3
2015-Jul-03 14:31N 35°43' E 014°54'0 0.2
2015-Jul-03 13:34N 35°43' E 014°54'0 0.2
2015-Jul-03 12:33N 35°43' E 014°54'0 0.2
2015-Jul-03 11:33N 35°43' E 014°54'0 0.4
2015-Jul-03 10:33N 35°43' E 014°54'0 0.4
2015-Jul-03 09:34N 35°42' E 014°54'0 0.2
2015-Jul-03 08:33N 35°42' E 014°54'2 1.9
2015-Jul-03 07:33N 35°42' E 014°57'2 2.2
2015-Jul-03 06:34N 35°44' E 014°57'0 0.4
2015-Jul-03 05:33N 35°45' E 014°57'0 0.4
2015-Jul-03 04:31N 35°45' E 014°57'0 0.4
2015-Jul-03 03:31N 35°45' E 014°57'0 0.3
2015-Jul-03 02:31N 35°46' E 014°57'0 0.3
2015-Jul-03 01:31N 35°46' E 014°57'0 0.3
2015-Jul-03 00:31N 35°46' E 014°57'0 0.3
2015-Jul-02 23:31N 35°47' E 014°57'0 0.4
2015-Jul-02 22:31N 35°47' E 014°57'0 0.3
2015-Jul-02 21:31N 35°47' E 014°57'0 0.3
2015-Jul-02 20:31N 35°48' E 014°57'0 0.3
2015-Jul-02 19:31N 35°48' E 014°56'0 0.2
2015-Jul-02 18:22N 35°48' E 014°56'0 0.3
2015-Jul-02 17:22N 35°48' E 014°56'0 0.4
2015-Jul-02 16:31N 35°47' E 014°56'0 0.4
2015-Jul-02 15:28N 35°47' E 014°55'0 0.4
2015-Jul-02 14:28N 35°47' E 014°55'0 0.5
2015-Jul-02 13:31N 35°46' E 014°55'1 0.6
2015-Jul-02 12:28N 35°46' E 014°56'1 0.8
2015-Jul-02 11:31N 35°45' E 014°56'1 0.6
2015-Jul-02 10:31N 35°45' E 014°57'3 3.1
2015-Jul-02 09:34N 35°47' E 014°54'4 4.2
2015-Jul-02 08:33N 35°51' E 014°55'5 4.7
2015-Jul-02 07:33N 35°47' E 014°57'9 9.2
2015-Jul-02 06:33N 35°40' E 015°05'1 0.8
2015-Jul-02 05:32N 35°40' E 015°05'1 0.8
2015-Jul-02 04:32N 35°41' E 015°06'1 0.7
2015-Jul-02 03:32N 35°42' E 015°06'1 0.6
2015-Jul-02 02:32N 35°42' E 015°05'1 0.8
2015-Jul-02 01:32N 35°43' E 015°05'1 0.8
2015-Jul-02 00:32N 35°44' E 015°04'1 0.7
2015-Jul-01 23:32N 35°44' E 015°04'1 0.6
2015-Jul-01 22:32N 35°44' E 015°03'1 0.6
2015-Jul-01 21:32N 35°44' E 015°02'1 0.6
2015-Jul-01 20:32N 35°44' E 015°01'1 0.6
2015-Jul-01 19:29N 35°43' E 015°01'0 0.5
2015-Jul-01 18:32N 35°43' E 015°00'0 0.4
2015-Jul-01 17:32N 35°43' E 015°00'0 0.3
2015-Jul-01 16:32N 35°42' E 015°00'0 0.4
2015-Jul-01 15:32N 35°42' E 015°00'1 0.6
2015-Jul-01 14:29N 35°41' E 015°01'1 0.6
2015-Jul-01 13:32N 35°41' E 015°01'1 0.7
2015-Jul-01 12:32N 35°41' E 015°02'1 0.7
2015-Jul-01 11:29N 35°41' E 015°03'1 0.7
2015-Jul-01 10:32N 35°42' E 015°04'1 0.7
2015-Jul-01 09:29N 35°42' E 015°04'1 0.9
2015-Jul-01 08:32N 35°43' E 015°05'1 0.9
2015-Jul-01 07:32N 35°44' E 015°05'1 0.7
2015-Jul-01 06:32N 35°45' E 015°05'1 0.8
2015-Jul-01 05:32N 35°46' E 015°04'1 0.8
2015-Jul-01 04:32N 35°46' E 015°04'1 0.8
2015-Jul-01 03:32N 35°47' E 015°03'1 0.8
2015-Jul-01 02:32N 35°47' E 015°02'1 0.8
2015-Jul-01 01:32N 35°48' E 015°01'1 0.7
2015-Jul-01 00:32N 35°48' E 015°01'1 0.6
2015-Jun-30 23:33N 35°47' E 014°60'1 0.6
2015-Jun-30 22:33N 35°47' E 014°59'1 0.7
2015-Jun-30 21:33N 35°47' E 014°59'1 0.7
2015-Jun-30 20:33N 35°46' E 014°58'1 0.6
2015-Jun-30 19:27N 35°45' E 014°58'0 0.5
2015-Jun-30 18:33N 35°45' E 014°58'0 0.5
2015-Jun-30 17:33N 35°44' E 014°58'1 0.5
2015-Jun-30 16:33N 35°44' E 014°59'0 0.5
2015-Jun-30 15:33N 35°44' E 014°59'1 0.6
2015-Jun-30 14:30N 35°44' E 014°60'1 0.5
2015-Jun-30 13:33N 35°44' E 015°01'1 0.6
2015-Jun-30 12:33N 35°44' E 015°01'1 0.5
2015-Jun-30 11:33N 35°44' E 015°02'1 0.6
2015-Jun-30 10:33N 35°45' E 015°02'1 0.8
2015-Jun-30 09:33N 35°46' E 015°02'1 0.7
2015-Jun-30 08:33N 35°46' E 015°01'1 0.6
2015-Jun-30 07:33N 35°47' E 015°01'1 0.5
2015-Jun-30 06:33N 35°47' E 015°00'1 0.6
2015-Jun-30 05:33N 35°47' E 014°60'1 0.6
2015-Jun-30 04:33N 35°47' E 014°59'0 0.5
2015-Jun-30 03:33N 35°47' E 014°59'0 0.4
2015-Jun-30 02:33N 35°47' E 014°58'1 0.6
2015-Jun-30 01:33N 35°47' E 014°58'1 0.6
2015-Jun-30 00:33N 35°46' E 014°58'0 0.5
2015-Jun-29 23:33N 35°46' E 014°58'0 0.2
2015-Jun-29 22:33N 35°45' E 014°57'5 5.3
2015-Jun-29 21:33N 35°49' E 014°52'0 0.3
2015-Jun-29 20:30N 35°48' E 014°53'0 0.4
2015-Jun-29 19:33N 35°48' E 014°53'0 0.3
2015-Jun-29 18:33N 35°48' E 014°53'0 0.3
2015-Jun-29 17:33N 35°48' E 014°53'0 0.3
2015-Jun-29 16:33N 35°48' E 014°54'1 0.7
2015-Jun-29 15:33N 35°47' E 014°54'8 7.5
2015-Jun-29 14:26N 35°44' E 015°04'0 0.5
2015-Jun-29 13:32N 35°45' E 015°04'1 0.6
2015-Jun-29 12:26N 35°45' E 015°04'1 0.6
2015-Jun-29 11:26N 35°46' E 015°03'1 0.6
2015-Jun-29 10:29N 35°46' E 015°03'0 0.5
2015-Jun-29 09:32N 35°47' E 015°02'1 0.5
2015-Jun-29 08:32N 35°47' E 015°02'1 0.6
2015-Jun-29 07:32N 35°47' E 015°01'1 0.6
2015-Jun-29 06:32N 35°47' E 015°00'1 0.6
2015-Jun-29 05:20N 35°46' E 014°60'0 0.6
2015-Jun-29 04:32N 35°46' E 014°59'0 0.4
2015-Jun-29 03:32N 35°46' E 014°59'0 0.5
2015-Jun-29 02:32N 35°45' E 014°59'0 0.5
2015-Jun-29 01:29N 35°45' E 014°60'0 0.5
2015-Jun-29 00:32N 35°44' E 014°60'0 0.5
2015-Jun-28 23:32N 35°44' E 015°00'1 0.5
2015-Jun-28 22:32N 35°44' E 015°01'0 0.5
2015-Jun-28 21:32N 35°45' E 015°02'1 0.6
2015-Jun-28 20:32N 35°45' E 015°02'1 0.7
2015-Jun-28 19:32N 35°46' E 015°02'1 0.7
2015-Jun-28 18:32N 35°46' E 015°02'1 0.7
2015-Jun-28 17:32N 35°47' E 015°02'1 0.7
2015-Jun-28 16:32N 35°48' E 015°01'1 0.7
2015-Jun-28 15:32N 35°48' E 015°00'1 0.8
2015-Jun-28 14:26N 35°48' E 014°59'1 0.8
2015-Jun-28 13:32N 35°48' E 014°58'1 0.7
2015-Jun-28 12:32N 35°48' E 014°58'1 0.6
2015-Jun-28 11:32N 35°48' E 014°57'1 0.6
2015-Jun-28 10:32N 35°48' E 014°56'1 0.6
2015-Jun-28 09:32N 35°47' E 014°56'1 1.1
2015-Jun-28 08:33N 35°48' E 014°56'1312.5
2015-Jun-28 07:33N 35°50' E 015°11'1812.8
2015-Jun-28 06:08N 35°52' E 015°34'712.8
2015-Jun-28 05:33N 35°52' E 015°43'4112.6
2015-Jun-28 02:17N 35°56' E 016°34'912.1
2015-Jun-28 01:33N 35°57' E 016°44'2412.1
2015-Jun-27 23:33N 35°59' E 017°14'34510.8
2015-Jun-26 15:33N 37°35' E 024°08'1412.9
2015-Jun-26 14:28N 37°47' E 024°18'1413.3
2015-Jun-26 13:26N 37°54' E 024°33'258 5.4
2015-Jun-24 13:17N 40°53' E 028°34'1012.1
2015-Jun-24 12:29N 40°54' E 028°46'910.2
2015-Jun-24 11:33N 40°58' E 028°58'  
Track history (hours):
 
Tides and Currents Weather Stations Pressure Air Temp Water Temp Dewpoint Dewpoint Depression Visibility Wind Speed Wind Dir Waves Ship Positions

Iblea

Last reported at 2015-Jul-03 19:34 UTC. Time now 2015-Jul-03 20:21 UTC.
Position N 35°44' E 014°11'.

Length 176 m; draft 10.5 m.

Type: Ship (hazmat cat C). MMSI: 247087700.

Date/timePositionNaut miles runAvg speedWind from/ knotsBaromVisibWave heightAir tempDewpointWater temp
2015-Jul-03 19:34N 35°44' E 014°11'10 9.7
2015-Jul-03 18:33N 35°39' E 014°21'1212.5
2015-Jul-03 17:33N 35°38' E 014°36'1313.1
2015-Jul-03 16:33N 35°41' E 014°52'3 2.5
2015-Jul-03 15:33N 35°43' E 014°54'0 0.3
2015-Jul-03 14:31N 35°43' E 014°54'0 0.2
2015-Jul-03 13:34N 35°43' E 014°54'0 0.2
2015-Jul-03 12:33N 35°43' E 014°54'0 0.2
2015-Jul-03 11:33N 35°43' E 014°54'0 0.4
2015-Jul-03 10:33N 35°43' E 014°54'0 0.4
2015-Jul-03 09:34N 35°42' E 014°54'0 0.2
2015-Jul-03 08:33N 35°42' E 014°54'2 1.9
2015-Jul-03 07:33N 35°42' E 014°57'2 2.2
2015-Jul-03 06:34N 35°44' E 014°57'0 0.4
2015-Jul-03 05:33N 35°45' E 014°57'0 0.4
2015-Jul-03 04:31N 35°45' E 014°57'0 0.4
2015-Jul-03 03:31N 35°45' E 014°57'0 0.3
2015-Jul-03 02:31N 35°46' E 014°57'0 0.3
2015-Jul-03 01:31N 35°46' E 014°57'0 0.3
2015-Jul-03 00:31N 35°46' E 014°57'0 0.3
2015-Jul-02 23:31N 35°47' E 014°57'0 0.4
2015-Jul-02 22:31N 35°47' E 014°57'0 0.3
2015-Jul-02 21:31N 35°47' E 014°57'0 0.3
2015-Jul-02 20:31N 35°48' E 014°57'0 0.3
2015-Jul-02 19:31N 35°48' E 014°56'0 0.2
2015-Jul-02 18:22N 35°48' E 014°56'0 0.3
2015-Jul-02 17:22N 35°48' E 014°56'0 0.4
2015-Jul-02 16:31N 35°47' E 014°56'0 0.4
2015-Jul-02 15:28N 35°47' E 014°55'0 0.4
2015-Jul-02 14:28N 35°47' E 014°55'0 0.5
2015-Jul-02 13:31N 35°46' E 014°55'1 0.6
2015-Jul-02 12:28N 35°46' E 014°56'1 0.8
2015-Jul-02 11:31N 35°45' E 014°56'1 0.6
2015-Jul-02 10:31N 35°45' E 014°57'3 3.1
2015-Jul-02 09:34N 35°47' E 014°54'4 4.2
2015-Jul-02 08:33N 35°51' E 014°55'5 4.7
2015-Jul-02 07:33N 35°47' E 014°57'9 9.2
2015-Jul-02 06:33N 35°40' E 015°05'1 0.8
2015-Jul-02 05:32N 35°40' E 015°05'1 0.8
2015-Jul-02 04:32N 35°41' E 015°06'1 0.7
2015-Jul-02 03:32N 35°42' E 015°06'1 0.6
2015-Jul-02 02:32N 35°42' E 015°05'1 0.8
2015-Jul-02 01:32N 35°43' E 015°05'1 0.8
2015-Jul-02 00:32N 35°44' E 015°04'1 0.7
2015-Jul-01 23:32N 35°44' E 015°04'1 0.6
2015-Jul-01 22:32N 35°44' E 015°03'1 0.6
2015-Jul-01 21:32N 35°44' E 015°02'1 0.6
2015-Jul-01 20:32N 35°44' E 015°01'1 0.6
2015-Jul-01 19:29N 35°43' E 015°01'0 0.5
2015-Jul-01 18:32N 35°43' E 015°00'0 0.4
2015-Jul-01 17:32N 35°43' E 015°00'0 0.3
2015-Jul-01 16:32N 35°42' E 015°00'0 0.4
2015-Jul-01 15:32N 35°42' E 015°00'1 0.6
2015-Jul-01 14:29N 35°41' E 015°01'1 0.6
2015-Jul-01 13:32N 35°41' E 015°01'1 0.7
2015-Jul-01 12:32N 35°41' E 015°02'1 0.7
2015-Jul-01 11:29N 35°41' E 015°03'1 0.7
2015-Jul-01 10:32N 35°42' E 015°04'1 0.7
2015-Jul-01 09:29N 35°42' E 015°04'1 0.9
2015-Jul-01 08:32N 35°43' E 015°05'1 0.9
2015-Jul-01 07:32N 35°44' E 015°05'1 0.7
2015-Jul-01 06:32N 35°45' E 015°05'1 0.8
2015-Jul-01 05:32N 35°46' E 015°04'1 0.8
2015-Jul-01 04:32N 35°46' E 015°04'1 0.8
2015-Jul-01 03:32N 35°47' E 015°03'1 0.8
2015-Jul-01 02:32N 35°47' E 015°02'1 0.8
2015-Jul-01 01:32N 35°48' E 015°01'1 0.7
2015-Jul-01 00:32N 35°48' E 015°01'1 0.6
2015-Jun-30 23:33N 35°47' E 014°60'1 0.6
2015-Jun-30 22:33N 35°47' E 014°59'1 0.7
2015-Jun-30 21:33N 35°47' E 014°59'1 0.7
2015-Jun-30 20:33N 35°46' E 014°58'1 0.6
2015-Jun-30 19:27N 35°45' E 014°58'0 0.5
2015-Jun-30 18:33N 35°45' E 014°58'0 0.5
2015-Jun-30 17:33N 35°44' E 014°58'1 0.5
2015-Jun-30 16:33N 35°44' E 014°59'0 0.5
2015-Jun-30 15:33N 35°44' E 014°59'1 0.6
2015-Jun-30 14:30N 35°44' E 014°60'1 0.5
2015-Jun-30 13:33N 35°44' E 015°01'1 0.6
2015-Jun-30 12:33N 35°44' E 015°01'1 0.5
2015-Jun-30 11:33N 35°44' E 015°02'1 0.6
2015-Jun-30 10:33N 35°45' E 015°02'1 0.8
2015-Jun-30 09:33N 35°46' E 015°02'1 0.7
2015-Jun-30 08:33N 35°46' E 015°01'1 0.6
2015-Jun-30 07:33N 35°47' E 015°01'1 0.5
2015-Jun-30 06:33N 35°47' E 015°00'1 0.6
2015-Jun-30 05:33N 35°47' E 014°60'1 0.6
2015-Jun-30 04:33N 35°47' E 014°59'0 0.5
2015-Jun-30 03:33N 35°47' E 014°59'0 0.4
2015-Jun-30 02:33N 35°47' E 014°58'1 0.6
2015-Jun-30 01:33N 35°47' E 014°58'1 0.6
2015-Jun-30 00:33N 35°46' E 014°58'0 0.5
2015-Jun-29 23:33N 35°46' E 014°58'0 0.2
2015-Jun-29 22:33N 35°45' E 014°57'5 5.3
2015-Jun-29 21:33N 35°49' E 014°52'0 0.3
2015-Jun-29 20:30N 35°48' E 014°53'0 0.4
2015-Jun-29 19:33N 35°48' E 014°53'0 0.3
2015-Jun-29 18:33N 35°48' E 014°53'0 0.3
2015-Jun-29 17:33N 35°48' E 014°53'0 0.3
2015-Jun-29 16:33N 35°48' E 014°54'1 0.7
2015-Jun-29 15:33N 35°47' E 014°54'8 7.5
2015-Jun-29 14:26N 35°44' E 015°04'0 0.5
2015-Jun-29 13:32N 35°45' E 015°04'1 0.6
2015-Jun-29 12:26N 35°45' E 015°04'1 0.6
2015-Jun-29 11:26N 35°46' E 015°03'1 0.6
2015-Jun-29 10:29N 35°46' E 015°03'0 0.5
2015-Jun-29 09:32N 35°47' E 015°02'1 0.5
2015-Jun-29 08:32N 35°47' E 015°02'1 0.6
2015-Jun-29 07:32N 35°47' E 015°01'1 0.6
2015-Jun-29 06:32N 35°47' E 015°00'1 0.6
2015-Jun-29 05:20N 35°46' E 014°60'0 0.6
2015-Jun-29 04:32N 35°46' E 014°59'0 0.4
2015-Jun-29 03:32N 35°46' E 014°59'0 0.5
2015-Jun-29 02:32N 35°45' E 014°59'0 0.5
2015-Jun-29 01:29N 35°45' E 014°60'0 0.5
2015-Jun-29 00:32N 35°44' E 014°60'0 0.5
2015-Jun-28 23:32N 35°44' E 015°00'1 0.5
2015-Jun-28 22:32N 35°44' E 015°01'0 0.5
2015-Jun-28 21:32N 35°45' E 015°02'1 0.6
2015-Jun-28 20:32N 35°45' E 015°02'1 0.7
2015-Jun-28 19:32N 35°46' E 015°02'1 0.7
2015-Jun-28 18:32N 35°46' E 015°02'1 0.7
2015-Jun-28 17:32N 35°47' E 015°02'1 0.7
2015-Jun-28 16:32N 35°48' E 015°01'1 0.7
2015-Jun-28 15:32N 35°48' E 015°00'1 0.8
2015-Jun-28 14:26N 35°48' E 014°59'1 0.8
2015-Jun-28 13:32N 35°48' E 014°58'1 0.7
2015-Jun-28 12:32N 35°48' E 014°58'1 0.6
2015-Jun-28 11:32N 35°48' E 014°57'1 0.6
2015-Jun-28 10:32N 35°48' E 014°56'1 0.6
2015-Jun-28 09:32N 35°47' E 014°56'1 1.1
2015-Jun-28 08:33N 35°48' E 014°56'1312.5
2015-Jun-28 07:33N 35°50' E 015°11'1812.8
2015-Jun-28 06:08N 35°52' E 015°34'712.8
2015-Jun-28 05:33N 35°52' E 015°43'4112.6
2015-Jun-28 02:17N 35°56' E 016°34'912.1
2015-Jun-28 01:33N 35°57' E 016°44'2412.1
2015-Jun-27 23:33N 35°59' E 017°14'34510.8
2015-Jun-26 15:33N 37°35' E 024°08'1412.9
2015-Jun-26 14:28N 37°47' E 024°18'1413.3
2015-Jun-26 13:26N 37°54' E 024°33'258 5.4
2015-Jun-24 13:17N 40°53' E 028°34'1012.1
2015-Jun-24 12:29N 40°54' E 028°46'910.2
2015-Jun-24 11:33N 40°58' E 028°58'  

Dump ship's entire track history